sensor_id;sensor_type;location;lat;lon;timestamp;temperature;humidity
30250;DHT22;17064;47.974;13.826;2023-03-23T04:05:05;7.60;99.90
30250;DHT22;17064;47.974;13.826;2023-03-23T04:10:07;7.50;99.90
30250;DHT22;17064;47.974;13.826;2023-03-23T04:15:08;7.50;99.90
30250;DHT22;17064;47.974;13.826;2023-03-23T04:20:10;7.40;99.90
30250;DHT22;17064;47.974;13.826;2023-03-23T04:25:19;7.30;99.90
30250;DHT22;17064;47.974;13.826;2023-03-23T04:30:24;7.10;99.90
30250;DHT22;17064;47.974;13.826;2023-03-23T04:35:28;7.10;99.90
30250;DHT22;17064;47.974;13.826;2023-03-23T04:40:29;7.00;99.90
30250;DHT22;17064;47.974;13.826;2023-03-23T04:45:30;7.00;99.90
30250;DHT22;17064;47.974;13.826;2023-03-23T04:50:32;7.00;99.90
30250;DHT22;17064;47.974;13.826;2023-03-23T04:55:35;7.10;99.90
30250;DHT22;17064;47.974;13.826;2023-03-23T05:00:36;7.00;99.90
30250;DHT22;17064;47.974;13.826;2023-03-23T05:05:38;7.00;99.90
30250;DHT22;17064;47.974;13.826;2023-03-23T05:10:40;6.90;99.90
30250;DHT22;17064;47.974;13.826;2023-03-23T05:15:41;6.80;99.90
30250;DHT22;17064;47.974;13.826;2023-03-23T05:20:42;6.70;99.90
30250;DHT22;17064;47.974;13.826;2023-03-23T05:25:43;6.70;99.90
30250;DHT22;17064;47.974;13.826;2023-03-23T05:30:44;6.60;99.90
30250;DHT22;17064;47.974;13.826;2023-03-23T05:35:46;6.60;99.90
30250;DHT22;17064;47.974;13.826;2023-03-23T05:40:47;6.60;99.90
30250;DHT22;17064;47.974;13.826;2023-03-23T05:45:49;6.60;99.90
30250;DHT22;17064;47.974;13.826;2023-03-23T05:50:50;6.70;99.90
30250;DHT22;17064;47.974;13.826;2023-03-23T05:55:51;6.80;99.90
30250;DHT22;17064;47.974;13.826;2023-03-23T06:00:52;6.90;99.90
30250;DHT22;17064;47.974;13.826;2023-03-23T06:05:52;6.90;99.90
30250;DHT22;17064;47.974;13.826;2023-03-23T06:10:53;6.90;99.90
30250;DHT22;17064;47.974;13.826;2023-03-23T06:15:57;7.00;99.90
30250;DHT22;17064;47.974;13.826;2023-03-23T06:20:58;7.10;99.90
30250;DHT22;17064;47.974;13.826;2023-03-23T06:26:01;7.30;99.90
30250;DHT22;17064;47.974;13.826;2023-03-23T06:31:04;7.40;99.90
30250;DHT22;17064;47.974;13.826;2023-03-23T06:36:07;7.60;99.90
30250;DHT22;17064;47.974;13.826;2023-03-23T06:41:08;7.90;99.90
30250;DHT22;17064;47.974;13.826;2023-03-23T06:46:09;8.10;99.90
30250;DHT22;17064;47.974;13.826;2023-03-23T06:51:10;8.30;99.90
30250;DHT22;17064;47.974;13.826;2023-03-23T06:56:12;8.60;99.90
30250;DHT22;17064;47.974;13.826;2023-03-23T07:01:13;8.80;99.90
30250;DHT22;17064;47.974;13.826;2023-03-23T07:06:15;8.90;99.90
30250;DHT22;17064;47.974;13.826;2023-03-23T07:11:16;9.00;99.90
30250;DHT22;17064;47.974;13.826;2023-03-23T07:16:17;9.20;99.90
30250;DHT22;17064;47.974;13.826;2023-03-23T07:21:18;9.30;99.90
30250;DHT22;17064;47.974;13.826;2023-03-23T07:26:18;9.40;99.90
30250;DHT22;17064;47.974;13.826;2023-03-23T07:31:19;9.60;99.90
30250;DHT22;17064;47.974;13.826;2023-03-23T07:36:20;9.70;99.90
30250;DHT22;17064;47.974;13.826;2023-03-23T07:41:20;10.00;99.90
30250;DHT22;17064;47.974;13.826;2023-03-23T07:46:21;10.40;99.90
30250;DHT22;17064;47.974;13.826;2023-03-23T07:51:22;10.80;99.90
30250;DHT22;17064;47.974;13.826;2023-03-23T07:56:23;11.10;99.90
30250;DHT22;17064;47.974;13.826;2023-03-23T08:01:24;11.50;99.90
30250;DHT22;17064;47.974;13.826;2023-03-23T08:06:25;11.90;99.90
30250;DHT22;17064;47.974;13.826;2023-03-23T08:11:26;12.10;99.90
30250;DHT22;17064;47.974;13.826;2023-03-23T08:16:27;12.50;99.90
30250;DHT22;17064;47.974;13.826;2023-03-23T08:21:28;13.30;99.90
30250;DHT22;17064;47.974;13.826;2023-03-23T08:26:29;13.80;99.90
30250;DHT22;17064;47.974;13.826;2023-03-23T08:31:29;14.20;99.90
30250;DHT22;17064;47.974;13.826;2023-03-23T08:36:32;14.40;99.90
30250;DHT22;17064;47.974;13.826;2023-03-23T08:41:33;14.50;99.90
30250;DHT22;17064;47.974;13.826;2023-03-23T08:46:34;14.70;99.90
30250;DHT22;17064;47.974;13.826;2023-03-23T08:51:34;15.10;99.90
30250;DHT22;17064;47.974;13.826;2023-03-23T08:56:36;15.50;99.90
30250;DHT22;17064;47.974;13.826;2023-03-23T09:01:37;15.90;98.30
30250;DHT22;17064;47.974;13.826;2023-03-23T09:06:37;16.10;94.40
30250;DHT22;17064;47.974;13.826;2023-03-23T09:11:39;16.10;95.90
30250;DHT22;17064;47.974;13.826;2023-03-23T09:16:40;16.50;94.60
30250;DHT22;17064;47.974;13.826;2023-03-23T09:21:40;16.90;93.30
30250;DHT22;17064;47.974;13.826;2023-03-23T09:26:42;17.00;93.90
30250;DHT22;17064;47.974;13.826;2023-03-23T09:31:42;17.40;93.50
30250;DHT22;17064;47.974;13.826;2023-03-23T09:36:43;17.50;92.60
30250;DHT22;17064;47.974;13.826;2023-03-23T09:42:08;17.60;92.60
30250;DHT22;17064;47.974;13.826;2023-03-23T09:47:25;17.80;90.50
30250;DHT22;17064;47.974;13.826;2023-03-23T09:52:44;17.90;87.60
30250;DHT22;17064;47.974;13.826;2023-03-23T09:57:58;18.00;85.90
30250;DHT22;17064;47.974;13.826;2023-03-23T10:03:00;18.10;87.80
30250;DHT22;17064;47.974;13.826;2023-03-23T10:08:11;18.20;87.40
30250;DHT22;17064;47.974;13.826;2023-03-23T10:24:02;18.60;80.70
30250;DHT22;17064;47.974;13.826;2023-03-23T10:34:22;18.80;68.60
30250;DHT22;17064;47.974;13.826;2023-03-23T10:39:29;18.80;68.10
30250;DHT22;17064;47.974;13.826;2023-03-23T10:44:30;18.90;64.90
30250;DHT22;17064;47.974;13.826;2023-03-23T10:49:42;18.90;63.60
30250;DHT22;17064;47.974;13.826;2023-03-23T10:54:54;19.30;63.20
30250;DHT22;17064;47.974;13.826;2023-03-23T11:05:20;20.40;59.70
30250;DHT22;17064;47.974;13.826;2023-03-23T11:10:28;21.00;58.60
30250;DHT22;17064;47.974;13.826;2023-03-23T11:15:36;21.60;57.90
30250;DHT22;17064;47.974;13.826;2023-03-23T11:20:40;22.10;55.70
30250;DHT22;17064;47.974;13.826;2023-03-23T11:25:57;22.30;54.70
30250;DHT22;17064;47.974;13.826;2023-03-23T11:31:00;22.30;49.50
30250;DHT22;17064;47.974;13.826;2023-03-23T11:36:01;22.40;51.40
30250;DHT22;17064;47.974;13.826;2023-03-23T11:41:09;23.00;51.70
30250;DHT22;17064;47.974;13.826;2023-03-23T11:46:42;23.10;47.80
30250;DHT22;17064;47.974;13.826;2023-03-23T11:51:56;23.20;44.80
30250;DHT22;17064;47.974;13.826;2023-03-23T11:56:58;23.00;45.90
30250;DHT22;17064;47.974;13.826;2023-03-23T12:07:10;23.20;44.00
30250;DHT22;17064;47.974;13.826;2023-03-23T12:12:40;23.50;44.50
30250;DHT22;17064;47.974;13.826;2023-03-23T12:22:54;22.90;43.90
30250;DHT22;17064;47.974;13.826;2023-03-23T12:33:21;22.50;46.40
30250;DHT22;17064;47.974;13.826;2023-03-23T12:44:09;22.20;45.40
30250;DHT22;17064;47.974;13.826;2023-03-23T12:49:22;22.30;46.40
30250;DHT22;17064;47.974;13.826;2023-03-23T12:54:37;22.30;44.40
30250;DHT22;17064;47.974;13.826;2023-03-23T12:59:50;22.20;44.70
30250;DHT22;17064;47.974;13.826;2023-03-23T13:05:05;22.20;45.10
30250;DHT22;17064;47.974;13.826;2023-03-23T13:10:20;22.10;45.20
30250;DHT22;17064;47.974;13.826;2023-03-23T13:26:21;22.20;44.60
30250;DHT22;17064;47.974;13.826;2023-03-23T13:31:27;22.30;45.80
30250;DHT22;17064;47.974;13.826;2023-03-23T13:41:33;23.00;44.10
30250;DHT22;17064;47.974;13.826;2023-03-23T13:46:34;22.90;43.60
30250;DHT22;17064;47.974;13.826;2023-03-23T13:57:00;24.50;42.20
30250;DHT22;17064;47.974;13.826;2023-03-23T14:02:29;25.20;39.60
30250;DHT22;17064;47.974;13.826;2023-03-23T14:07:30;24.50;40.40
30250;DHT22;17064;47.974;13.826;2023-03-23T14:12:31;23.60;41.10
30250;DHT22;17064;47.974;13.826;2023-03-23T14:17:40;22.90;42.80
30250;DHT22;17064;47.974;13.826;2023-03-23T14:22:41;22.30;42.70
30250;DHT22;17064;47.974;13.826;2023-03-23T14:27:43;22.00;44.90
30250;DHT22;17064;47.974;13.826;2023-03-23T14:32:44;21.70;44.80
30250;DHT22;17064;47.974;13.826;2023-03-23T14:37:46;21.60;44.60
30250;DHT22;17064;47.974;13.826;2023-03-23T14:42:47;21.70;44.20
30250;DHT22;17064;47.974;13.826;2023-03-23T14:47:57;22.00;44.30
30250;DHT22;17064;47.974;13.826;2023-03-23T14:53:02;21.70;44.10
30250;DHT22;17064;47.974;13.826;2023-03-23T14:58:08;21.20;46.40
30250;DHT22;17064;47.974;13.826;2023-03-23T15:03:14;20.90;46.60
30250;DHT22;17064;47.974;13.826;2023-03-23T15:13:20;20.30;49.60
30250;DHT22;17064;47.974;13.826;2023-03-23T15:18:35;20.00;48.80
30250;DHT22;17064;47.974;13.826;2023-03-23T15:23:42;19.70;50.50
30250;DHT22;17064;47.974;13.826;2023-03-23T15:28:43;19.50;52.80
30250;DHT22;17064;47.974;13.826;2023-03-23T15:33:44;19.30;53.60
30250;DHT22;17064;47.974;13.826;2023-03-23T15:38:47;19.20;55.00
30250;DHT22;17064;47.974;13.826;2023-03-23T15:43:58;19.10;55.00
30250;DHT22;17064;47.974;13.826;2023-03-23T15:49:11;18.90;56.20
30250;DHT22;17064;47.974;13.826;2023-03-23T15:54:15;18.80;58.20
30250;DHT22;17064;47.974;13.826;2023-03-23T15:59:16;18.60;60.60
30250;DHT22;17064;47.974;13.826;2023-03-23T16:04:19;18.60;62.10
30250;DHT22;17064;47.974;13.826;2023-03-23T16:09:20;18.50;61.60
30250;DHT22;17064;47.974;13.826;2023-03-23T16:14:21;18.40;61.20
30250;DHT22;17064;47.974;13.826;2023-03-23T16:19:22;18.30;63.10
30250;DHT22;17064;47.974;13.826;2023-03-23T16:24:23;18.10;63.70
30250;DHT22;17064;47.974;13.826;2023-03-23T16:29:24;18.00;62.10
30250;DHT22;17064;47.974;13.826;2023-03-23T16:34:25;17.80;62.40
30250;DHT22;17064;47.974;13.826;2023-03-23T16:39:28;17.70;64.10
30250;DHT22;17064;47.974;13.826;2023-03-23T16:44:29;17.50;64.80
30250;DHT22;17064;47.974;13.826;2023-03-23T16:49:30;17.40;65.50
30250;DHT22;17064;47.974;13.826;2023-03-23T16:54:30;17.20;67.60
30250;DHT22;17064;47.974;13.826;2023-03-23T16:59:31;17.00;70.00
30250;DHT22;17064;47.974;13.826;2023-03-23T17:04:33;16.80;68.50
30250;DHT22;17064;47.974;13.826;2023-03-23T17:09:34;16.60;69.20
30250;DHT22;17064;47.974;13.826;2023-03-23T17:14:34;16.40;70.40
30250;DHT22;17064;47.974;13.826;2023-03-23T17:19:35;16.20;71.20
30250;DHT22;17064;47.974;13.826;2023-03-23T17:24:36;15.90;76.00
30250;DHT22;17064;47.974;13.826;2023-03-23T17:29:37;15.60;78.40
30250;DHT22;17064;47.974;13.826;2023-03-23T17:34:38;15.30;77.00
30250;DHT22;17064;47.974;13.826;2023-03-23T17:39:39;15.30;74.90
30250;DHT22;17064;47.974;13.826;2023-03-23T17:44:40;15.20;75.80
30250;DHT22;17064;47.974;13.826;2023-03-23T17:49:41;15.10;79.20
30250;DHT22;17064;47.974;13.826;2023-03-23T17:54:42;14.90;81.60
30250;DHT22;17064;47.974;13.826;2023-03-23T17:59:43;14.70;82.10
30250;DHT22;17064;47.974;13.826;2023-03-23T18:04:45;14.60;82.00
30250;DHT22;17064;47.974;13.826;2023-03-23T18:09:46;14.40;83.90
30250;DHT22;17064;47.974;13.826;2023-03-23T18:14:47;14.10;86.50
30250;DHT22;17064;47.974;13.826;2023-03-23T18:19:48;13.90;89.80
30250;DHT22;17064;47.974;13.826;2023-03-23T18:24:49;13.70;92.40
30250;DHT22;17064;47.974;13.826;2023-03-23T18:29:50;13.60;94.20
30250;DHT22;17064;47.974;13.826;2023-03-23T18:34:51;13.40;95.30
30250;DHT22;17064;47.974;13.826;2023-03-23T18:39:53;13.40;95.90
30250;DHT22;17064;47.974;13.826;2023-03-23T18:44:55;13.20;97.10
30250;DHT22;17064;47.974;13.826;2023-03-23T18:49:59;13.20;99.20
30250;DHT22;17064;47.974;13.826;2023-03-23T18:55:01;13.10;99.50
30250;DHT22;17064;47.974;13.826;2023-03-23T19:00:02;13.00;99.70
30250;DHT22;17064;47.974;13.826;2023-03-23T19:05:06;12.90;99.90
30250;DHT22;17064;47.974;13.826;2023-03-23T19:10:08;12.70;99.90
30250;DHT22;17064;47.974;13.826;2023-03-23T19:15:09;12.50;99.90
30250;DHT22;17064;47.974;13.826;2023-03-23T19:20:11;12.50;99.90
30250;DHT22;17064;47.974;13.826;2023-03-23T19:25:13;12.40;99.90
30250;DHT22;17064;47.974;13.826;2023-03-23T19:30:15;12.40;99.90
30250;DHT22;17064;47.974;13.826;2023-03-23T19:35:16;12.30;99.90
30250;DHT22;17064;47.974;13.826;2023-03-23T19:40:18;12.30;99.90
30250;DHT22;17064;47.974;13.826;2023-03-23T19:45:24;12.20;99.90
30250;DHT22;17064;47.974;13.826;2023-03-23T19:50:25;12.20;99.90
30250;DHT22;17064;47.974;13.826;2023-03-23T19:55:27;12.10;99.90
30250;DHT22;17064;47.974;13.826;2023-03-23T20:00:28;12.00;99.90
30250;DHT22;17064;47.974;13.826;2023-03-23T20:05:29;11.90;99.90
30250;DHT22;17064;47.974;13.826;2023-03-23T20:10:30;11.70;99.90
30250;DHT22;17064;47.974;13.826;2023-03-23T20:15:34;11.60;99.90
30250;DHT22;17064;47.974;13.826;2023-03-23T20:20:35;11.40;99.90
30250;DHT22;17064;47.974;13.826;2023-03-23T20:25:37;11.30;99.90
30250;DHT22;17064;47.974;13.826;2023-03-23T20:30:38;11.20;99.90
30250;DHT22;17064;47.974;13.826;2023-03-23T20:35:39;11.00;99.90
30250;DHT22;17064;47.974;13.826;2023-03-23T20:40:41;10.90;99.90
30250;DHT22;17064;47.974;13.826;2023-03-23T20:45:42;10.80;99.90
30250;DHT22;17064;47.974;13.826;2023-03-23T20:50:45;10.70;99.90
30250;DHT22;17064;47.974;13.826;2023-03-23T20:55:49;10.60;99.90
30250;DHT22;17064;47.974;13.826;2023-03-23T21:00:52;10.50;99.90
30250;DHT22;17064;47.974;13.826;2023-03-23T21:05:57;10.50;99.90
30250;DHT22;17064;47.974;13.826;2023-03-23T21:10:58;10.40;99.90
30250;DHT22;17064;47.974;13.826;2023-03-23T21:16:00;10.30;99.90
30250;DHT22;17064;47.974;13.826;2023-03-23T21:21:03;10.20;99.90
30250;DHT22;17064;47.974;13.826;2023-03-23T21:26:06;10.10;99.90
30250;DHT22;17064;47.974;13.826;2023-03-23T21:31:12;10.00;99.90
30250;DHT22;17064;47.974;13.826;2023-03-23T21:36:14;10.10;99.90
30250;DHT22;17064;47.974;13.826;2023-03-23T21:41:15;10.10;99.90
30250;DHT22;17064;47.974;13.826;2023-03-23T21:46:16;10.10;99.90
30250;DHT22;17064;47.974;13.826;2023-03-23T21:51:28;10.20;99.90
30250;DHT22;17064;47.974;13.826;2023-03-23T21:56:29;10.30;99.90
30250;DHT22;17064;47.974;13.826;2023-03-23T22:01:30;10.30;99.90
30250;DHT22;17064;47.974;13.826;2023-03-23T22:06:31;10.30;99.90
30250;DHT22;17064;47.974;13.826;2023-03-23T22:11:34;10.30;99.90
30250;DHT22;17064;47.974;13.826;2023-03-23T22:16:35;10.30;99.90
30250;DHT22;17064;47.974;13.826;2023-03-23T22:21:36;10.20;99.90
30250;DHT22;17064;47.974;13.826;2023-03-23T22:26:37;10.10;99.90
30250;DHT22;17064;47.974;13.826;2023-03-23T22:31:38;10.00;99.90
30250;DHT22;17064;47.974;13.826;2023-03-23T22:36:40;9.90;99.90
30250;DHT22;17064;47.974;13.826;2023-03-23T22:41:41;9.90;99.90
30250;DHT22;17064;47.974;13.826;2023-03-23T22:46:42;9.90;99.90
30250;DHT22;17064;47.974;13.826;2023-03-23T22:51:42;9.80;99.90
30250;DHT22;17064;47.974;13.826;2023-03-23T22:56:43;9.80;99.90
30250;DHT22;17064;47.974;13.826;2023-03-23T23:01:44;9.90;99.90
30250;DHT22;17064;47.974;13.826;2023-03-23T23:06:45;9.90;99.90
30250;DHT22;17064;47.974;13.826;2023-03-23T23:11:45;9.90;99.90
30250;DHT22;17064;47.974;13.826;2023-03-23T23:16:46;9.70;99.90
30250;DHT22;17064;47.974;13.826;2023-03-23T23:21:47;9.60;99.90
30250;DHT22;17064;47.974;13.826;2023-03-23T23:26:48;9.40;99.90
30250;DHT22;17064;47.974;13.826;2023-03-23T23:31:49;9.40;99.90
30250;DHT22;17064;47.974;13.826;2023-03-23T23:36:49;9.40;99.90
30250;DHT22;17064;47.974;13.826;2023-03-23T23:41:51;9.40;99.90
30250;DHT22;17064;47.974;13.826;2023-03-23T23:46:51;9.30;99.90
30250;DHT22;17064;47.974;13.826;2023-03-23T23:51:52;9.30;99.90
30250;DHT22;17064;47.974;13.826;2023-03-23T23:56:53;9.30;99.90
